sensor_id;sensor_type;location;lat;lon;timestamp;P1;durP1;ratioP1;P2;durP2;ratioP2
40164;SDS011;25882;51.120;17.248;2023-02-15T00:00:13;84.25;;;34.05;;
40164;SDS011;25882;51.120;17.248;2023-02-15T00:02:59;74.85;;;31.23;;
40164;SDS011;25882;51.120;17.248;2023-02-15T00:05:25;75.93;;;33.15;;
40164;SDS011;25882;51.120;17.248;2023-02-15T00:07:52;72.80;;;29.38;;
40164;SDS011;25882;51.120;17.248;2023-02-15T00:10:20;71.50;;;30.13;;
40164;SDS011;25882;51.120;17.248;2023-02-15T00:12:46;75.47;;;32.95;;
40164;SDS011;25882;51.120;17.248;2023-02-15T00:15:12;82.97;;;33.53;;
40164;SDS011;25882;51.120;17.248;2023-02-15T00:17:38;72.72;;;31.40;;
40164;SDS011;25882;51.120;17.248;2023-02-15T00:20:05;83.55;;;33.25;;
40164;SDS011;25882;51.120;17.248;2023-02-15T00:22:32;77.93;;;31.77;;
40164;SDS011;25882;51.120;17.248;2023-02-15T00:24:58;83.28;;;33.70;;
40164;SDS011;25882;51.120;17.248;2023-02-15T00:27:26;77.65;;;32.13;;
40164;SDS011;25882;51.120;17.248;2023-02-15T00:29:52;76.18;;;30.80;;
40164;SDS011;25882;51.120;17.248;2023-02-15T00:32:18;74.95;;;31.85;;
40164;SDS011;25882;51.120;17.248;2023-02-15T00:34:44;75.90;;;32.50;;
40164;SDS011;25882;51.120;17.248;2023-02-15T00:37:11;75.88;;;32.33;;
40164;SDS011;25882;51.120;17.248;2023-02-15T00:39:37;78.95;;;31.83;;
40164;SDS011;25882;51.120;17.248;2023-02-15T00:42:03;69.03;;;29.13;;
40164;SDS011;25882;51.120;17.248;2023-02-15T00:44:31;67.15;;;29.50;;
40164;SDS011;25882;51.120;17.248;2023-02-15T00:46:57;72.30;;;30.83;;
40164;SDS011;25882;51.120;17.248;2023-02-15T00:49:23;73.35;;;28.25;;
40164;SDS011;25882;51.120;17.248;2023-02-15T00:51:50;67.22;;;28.60;;
40164;SDS011;25882;51.120;17.248;2023-02-15T00:54:16;67.50;;;28.20;;
40164;SDS011;25882;51.120;17.248;2023-02-15T00:56:42;72.60;;;27.70;;
40164;SDS011;25882;51.120;17.248;2023-02-15T00:59:08;77.15;;;27.50;;
40164;SDS011;25882;51.120;17.248;2023-02-15T01:01:36;69.03;;;28.45;;
40164;SDS011;25882;51.120;17.248;2023-02-15T01:04:02;81.25;;;29.77;;
40164;SDS011;25882;51.120;17.248;2023-02-15T01:06:29;85.55;;;30.13;;
40164;SDS011;25882;51.120;17.248;2023-02-15T01:08:55;77.00;;;31.27;;
40164;SDS011;25882;51.120;17.248;2023-02-15T01:11:22;73.68;;;29.67;;
40164;SDS011;25882;51.120;17.248;2023-02-15T01:13:48;75.05;;;29.83;;
40164;SDS011;25882;51.120;17.248;2023-02-15T01:16:15;76.03;;;29.80;;
40164;SDS011;25882;51.120;17.248;2023-02-15T01:18:43;73.10;;;32.42;;
40164;SDS011;25882;51.120;17.248;2023-02-15T01:21:11;76.15;;;31.30;;
40164;SDS011;25882;51.120;17.248;2023-02-15T01:23:37;82.03;;;31.40;;
40164;SDS011;25882;51.120;17.248;2023-02-15T01:26:04;81.50;;;31.73;;
40164;SDS011;25882;51.120;17.248;2023-02-15T01:28:30;71.75;;;30.40;;
40164;SDS011;25882;51.120;17.248;2023-02-15T01:30:57;83.03;;;30.30;;
40164;SDS011;25882;51.120;17.248;2023-02-15T01:33:24;86.93;;;30.42;;
40164;SDS011;25882;51.120;17.248;2023-02-15T01:35:57;77.45;;;31.25;;
40164;SDS011;25882;51.120;17.248;2023-02-15T01:38:23;70.78;;;29.73;;
40164;SDS011;25882;51.120;17.248;2023-02-15T01:40:50;80.20;;;32.80;;
40164;SDS011;25882;51.120;17.248;2023-02-15T01:43:16;76.30;;;31.40;;
40164;SDS011;25882;51.120;17.248;2023-02-15T01:45:42;92.30;;;36.90;;
40164;SDS011;25882;51.120;17.248;2023-02-15T01:48:14;91.07;;;36.38;;
40164;SDS011;25882;51.120;17.248;2023-02-15T01:50:44;87.03;;;34.38;;
40164;SDS011;25882;51.120;17.248;2023-02-15T01:53:16;79.72;;;31.80;;
40164;SDS011;25882;51.120;17.248;2023-02-15T01:55:44;86.20;;;33.97;;
40164;SDS011;25882;51.120;17.248;2023-02-15T01:58:11;80.20;;;32.38;;
40164;SDS011;25882;51.120;17.248;2023-02-15T02:00:37;76.45;;;30.13;;
40164;SDS011;25882;51.120;17.248;2023-02-15T02:03:03;69.15;;;29.67;;
40164;SDS011;25882;51.120;17.248;2023-02-15T02:05:30;71.20;;;27.50;;
40164;SDS011;25882;51.120;17.248;2023-02-15T02:07:57;67.43;;;27.90;;
40164;SDS011;25882;51.120;17.248;2023-02-15T02:13:14;87.93;;;33.42;;
40164;SDS011;25882;51.120;17.248;2023-02-15T02:15:43;93.47;;;38.40;;
40164;SDS011;25882;51.120;17.248;2023-02-15T02:18:18;91.10;;;39.22;;
40164;SDS011;25882;51.120;17.248;2023-02-15T02:23:43;94.95;;;36.38;;
40164;SDS011;25882;51.120;17.248;2023-02-15T02:32:03;86.85;;;33.60;;
40164;SDS011;25882;51.120;17.248;2023-02-15T02:34:36;87.03;;;32.67;;
40164;SDS011;25882;51.120;17.248;2023-02-15T02:37:07;80.78;;;31.77;;
40164;SDS011;25882;51.120;17.248;2023-02-15T02:39:36;59.88;;;27.73;;
40164;SDS011;25882;51.120;17.248;2023-02-15T02:42:05;84.20;;;32.25;;
40164;SDS011;25882;51.120;17.248;2023-02-15T02:44:36;75.50;;;30.40;;
40164;SDS011;25882;51.120;17.248;2023-02-15T02:47:04;69.82;;;28.27;;
40164;SDS011;25882;51.120;17.248;2023-02-15T02:49:34;65.75;;;26.35;;
40164;SDS011;25882;51.120;17.248;2023-02-15T02:52:03;79.72;;;31.70;;
40164;SDS011;25882;51.120;17.248;2023-02-15T02:54:29;75.97;;;31.95;;
40164;SDS011;25882;51.120;17.248;2023-02-15T02:56:56;63.85;;;27.23;;
40164;SDS011;25882;51.120;17.248;2023-02-15T02:59:25;55.88;;;24.17;;
40164;SDS011;25882;51.120;17.248;2023-02-15T03:01:54;62.53;;;25.65;;
40164;SDS011;25882;51.120;17.248;2023-02-15T03:04:21;66.25;;;26.65;;
40164;SDS011;25882;51.120;17.248;2023-02-15T03:06:49;55.30;;;23.88;;
40164;SDS011;25882;51.120;17.248;2023-02-15T03:09:18;61.08;;;24.92;;
40164;SDS011;25882;51.120;17.248;2023-02-15T03:11:47;60.10;;;24.67;;
40164;SDS011;25882;51.120;17.248;2023-02-15T03:14:14;62.80;;;23.63;;
40164;SDS011;25882;51.120;17.248;2023-02-15T03:16:41;55.35;;;22.15;;
40164;SDS011;25882;51.120;17.248;2023-02-15T03:19:08;54.53;;;22.98;;
40164;SDS011;25882;51.120;17.248;2023-02-15T03:21:36;56.13;;;22.48;;
40164;SDS011;25882;51.120;17.248;2023-02-15T03:24:04;53.40;;;21.80;;
40164;SDS011;25882;51.120;17.248;2023-02-15T03:26:34;56.28;;;22.58;;
40164;SDS011;25882;51.120;17.248;2023-02-15T03:29:01;54.38;;;21.95;;
40164;SDS011;25882;51.120;17.248;2023-02-15T03:31:29;54.72;;;23.38;;
40164;SDS011;25882;51.120;17.248;2023-02-15T03:33:57;57.38;;;23.83;;
40164;SDS011;25882;51.120;17.248;2023-02-15T03:36:26;57.88;;;22.90;;
40164;SDS011;25882;51.120;17.248;2023-02-15T03:38:55;53.22;;;22.17;;
40164;SDS011;25882;51.120;17.248;2023-02-15T03:41:25;57.03;;;24.15;;
40164;SDS011;25882;51.120;17.248;2023-02-15T03:43:54;49.75;;;22.23;;
40164;SDS011;25882;51.120;17.248;2023-02-15T03:46:23;61.33;;;23.83;;
40164;SDS011;25882;51.120;17.248;2023-02-15T03:48:51;53.42;;;23.65;;
40164;SDS011;25882;51.120;17.248;2023-02-15T03:51:19;55.90;;;22.38;;
40164;SDS011;25882;51.120;17.248;2023-02-15T03:54:04;54.85;;;23.65;;
40164;SDS011;25882;51.120;17.248;2023-02-15T03:56:33;51.05;;;20.52;;
40164;SDS011;25882;51.120;17.248;2023-02-15T03:59:01;59.38;;;22.98;;
40164;SDS011;25882;51.120;17.248;2023-02-15T04:01:47;66.32;;;25.80;;
40164;SDS011;25882;51.120;17.248;2023-02-15T04:04:23;67.85;;;26.00;;
40164;SDS011;25882;51.120;17.248;2023-02-15T04:06:50;66.15;;;26.08;;
40164;SDS011;25882;51.120;17.248;2023-02-15T04:09:16;75.40;;;27.50;;
40164;SDS011;25882;51.120;17.248;2023-02-15T04:12:01;74.40;;;26.80;;
40164;SDS011;25882;51.120;17.248;2023-02-15T04:14:28;94.25;;;33.22;;
40164;SDS011;25882;51.120;17.248;2023-02-15T04:17:13;73.10;;;29.08;;
40164;SDS011;25882;51.120;17.248;2023-02-15T04:19:39;81.82;;;28.77;;
40164;SDS011;25882;51.120;17.248;2023-02-15T04:22:24;74.95;;;28.00;;
40164;SDS011;25882;51.120;17.248;2023-02-15T04:25:09;74.45;;;28.33;;
40164;SDS011;25882;51.120;17.248;2023-02-15T04:27:36;72.72;;;28.63;;
40164;SDS011;25882;51.120;17.248;2023-02-15T04:30:05;80.38;;;28.75;;
40164;SDS011;25882;51.120;17.248;2023-02-15T04:32:32;79.97;;;28.80;;
40164;SDS011;25882;51.120;17.248;2023-02-15T04:34:58;85.65;;;31.67;;
40164;SDS011;25882;51.120;17.248;2023-02-15T04:37:25;86.03;;;30.52;;
40164;SDS011;25882;51.120;17.248;2023-02-15T04:39:51;84.15;;;31.95;;
40164;SDS011;25882;51.120;17.248;2023-02-15T04:42:17;83.25;;;29.98;;
40164;SDS011;25882;51.120;17.248;2023-02-15T04:44:43;85.90;;;30.50;;
40164;SDS011;25882;51.120;17.248;2023-02-15T04:47:11;81.65;;;31.27;;
40164;SDS011;25882;51.120;17.248;2023-02-15T04:49:37;95.15;;;31.48;;
40164;SDS011;25882;51.120;17.248;2023-02-15T04:52:04;83.50;;;31.73;;
40164;SDS011;25882;51.120;17.248;2023-02-15T04:54:29;79.50;;;30.42;;
40164;SDS011;25882;51.120;17.248;2023-02-15T04:56:56;82.85;;;30.98;;
40164;SDS011;25882;51.120;17.248;2023-02-15T04:59:22;77.88;;;29.20;;
40164;SDS011;25882;51.120;17.248;2023-02-15T05:01:49;86.03;;;31.38;;
40164;SDS011;25882;51.120;17.248;2023-02-15T05:04:16;87.90;;;32.70;;
40164;SDS011;25882;51.120;17.248;2023-02-15T05:06:43;80.00;;;30.38;;
40164;SDS011;25882;51.120;17.248;2023-02-15T05:09:10;84.93;;;29.23;;
40164;SDS011;25882;51.120;17.248;2023-02-15T05:11:36;88.22;;;30.65;;
40164;SDS011;25882;51.120;17.248;2023-02-15T05:14:02;79.32;;;31.27;;
40164;SDS011;25882;51.120;17.248;2023-02-15T05:16:28;86.63;;;30.75;;
40164;SDS011;25882;51.120;17.248;2023-02-15T05:18:54;83.70;;;29.33;;
40164;SDS011;25882;51.120;17.248;2023-02-15T05:21:22;75.97;;;30.75;;
40164;SDS011;25882;51.120;17.248;2023-02-15T05:23:47;83.57;;;30.25;;
40164;SDS011;25882;51.120;17.248;2023-02-15T05:26:16;85.05;;;31.38;;
40164;SDS011;25882;51.120;17.248;2023-02-15T05:29:00;79.25;;;29.23;;
40164;SDS011;25882;51.120;17.248;2023-02-15T05:31:26;82.57;;;28.40;;
40164;SDS011;25882;51.120;17.248;2023-02-15T05:33:52;74.13;;;30.63;;
40164;SDS011;25882;51.120;17.248;2023-02-15T05:36:19;82.70;;;30.30;;
40164;SDS011;25882;51.120;17.248;2023-02-15T05:38:46;76.85;;;30.67;;
40164;SDS011;25882;51.120;17.248;2023-02-15T05:41:12;80.13;;;30.17;;
40164;SDS011;25882;51.120;17.248;2023-02-15T05:43:38;69.60;;;27.83;;
40164;SDS011;25882;51.120;17.248;2023-02-15T05:46:05;70.70;;;27.95;;
40164;SDS011;25882;51.120;17.248;2023-02-15T05:48:31;71.82;;;29.25;;
40164;SDS011;25882;51.120;17.248;2023-02-15T05:50:58;73.00;;;27.00;;
40164;SDS011;25882;51.120;17.248;2023-02-15T05:53:24;70.22;;;27.05;;
40164;SDS011;25882;51.120;17.248;2023-02-15T05:55:52;76.13;;;29.50;;
40164;SDS011;25882;51.120;17.248;2023-02-15T05:58:19;72.25;;;27.13;;
40164;SDS011;25882;51.120;17.248;2023-02-15T06:00:45;74.60;;;27.15;;
40164;SDS011;25882;51.120;17.248;2023-02-15T06:03:11;67.20;;;25.25;;
40164;SDS011;25882;51.120;17.248;2023-02-15T06:05:37;71.45;;;26.10;;
40164;SDS011;25882;51.120;17.248;2023-02-15T06:08:03;67.78;;;26.48;;
40164;SDS011;25882;51.120;17.248;2023-02-15T06:10:29;63.88;;;27.02;;
40164;SDS011;25882;51.120;17.248;2023-02-15T06:12:57;68.80;;;27.05;;
40164;SDS011;25882;51.120;17.248;2023-02-15T06:15:23;67.53;;;26.80;;
40164;SDS011;25882;51.120;17.248;2023-02-15T06:17:49;63.00;;;26.10;;
40164;SDS011;25882;51.120;17.248;2023-02-15T06:20:15;65.15;;;26.90;;
40164;SDS011;25882;51.120;17.248;2023-02-15T06:22:41;66.28;;;26.80;;
40164;SDS011;25882;51.120;17.248;2023-02-15T06:25:08;70.47;;;27.85;;
40164;SDS011;25882;51.120;17.248;2023-02-15T06:27:35;58.97;;;23.63;;
40164;SDS011;25882;51.120;17.248;2023-02-15T06:30:03;69.07;;;29.35;;
40164;SDS011;25882;51.120;17.248;2023-02-15T06:32:29;68.13;;;25.90;;
40164;SDS011;25882;51.120;17.248;2023-02-15T06:34:55;64.53;;;26.45;;
40164;SDS011;25882;51.120;17.248;2023-02-15T06:37:21;60.95;;;24.48;;
40164;SDS011;25882;51.120;17.248;2023-02-15T06:39:47;65.20;;;25.73;;
40164;SDS011;25882;51.120;17.248;2023-02-15T06:42:13;64.57;;;25.67;;
40164;SDS011;25882;51.120;17.248;2023-02-15T06:44:40;59.58;;;24.73;;
40164;SDS011;25882;51.120;17.248;2023-02-15T06:47:07;61.60;;;24.40;;
40164;SDS011;25882;51.120;17.248;2023-02-15T06:49:33;60.88;;;25.17;;
40164;SDS011;25882;51.120;17.248;2023-02-15T06:51:59;60.50;;;26.15;;
40164;SDS011;25882;51.120;17.248;2023-02-15T06:54:25;61.03;;;24.95;;
40164;SDS011;25882;51.120;17.248;2023-02-15T06:56:51;58.97;;;25.00;;
40164;SDS011;25882;51.120;17.248;2023-02-15T06:59:18;65.43;;;25.58;;
40164;SDS011;25882;51.120;17.248;2023-02-15T07:01:43;68.55;;;28.30;;
40164;SDS011;25882;51.120;17.248;2023-02-15T07:04:11;57.15;;;24.17;;
40164;SDS011;25882;51.120;17.248;2023-02-15T07:06:37;64.78;;;28.25;;
40164;SDS011;25882;51.120;17.248;2023-02-15T07:09:03;64.10;;;25.63;;
40164;SDS011;25882;51.120;17.248;2023-02-15T07:11:29;61.13;;;26.73;;
40164;SDS011;25882;51.120;17.248;2023-02-15T07:14:14;58.85;;;26.00;;
40164;SDS011;25882;51.120;17.248;2023-02-15T07:16:40;61.58;;;25.55;;
40164;SDS011;25882;51.120;17.248;2023-02-15T07:19:06;63.17;;;25.40;;
40164;SDS011;25882;51.120;17.248;2023-02-15T07:21:34;62.28;;;27.88;;
40164;SDS011;25882;51.120;17.248;2023-02-15T07:24:01;63.53;;;27.95;;
40164;SDS011;25882;51.120;17.248;2023-02-15T07:26:27;60.35;;;27.38;;
40164;SDS011;25882;51.120;17.248;2023-02-15T07:28:53;69.78;;;28.23;;
40164;SDS011;25882;51.120;17.248;2023-02-15T07:31:19;63.35;;;29.33;;
40164;SDS011;25882;51.120;17.248;2023-02-15T07:33:45;66.15;;;27.77;;
40164;SDS011;25882;51.120;17.248;2023-02-15T07:36:12;62.60;;;28.42;;
40164;SDS011;25882;51.120;17.248;2023-02-15T07:38:40;53.22;;;25.02;;
40164;SDS011;25882;51.120;17.248;2023-02-15T07:41:07;57.58;;;27.33;;
40164;SDS011;25882;51.120;17.248;2023-02-15T07:43:35;59.10;;;26.10;;
40164;SDS011;25882;51.120;17.248;2023-02-15T07:46:02;59.08;;;26.40;;
40164;SDS011;25882;51.120;17.248;2023-02-15T07:48:29;55.67;;;27.65;;
40164;SDS011;25882;51.120;17.248;2023-02-15T07:50:56;52.90;;;24.48;;
40164;SDS011;25882;51.120;17.248;2023-02-15T07:53:24;57.10;;;27.85;;
40164;SDS011;25882;51.120;17.248;2023-02-15T07:55:51;51.35;;;25.65;;
40164;SDS011;25882;51.120;17.248;2023-02-15T07:58:18;50.75;;;25.20;;
40164;SDS011;25882;51.120;17.248;2023-02-15T08:00:44;46.92;;;24.58;;
40164;SDS011;25882;51.120;17.248;2023-02-15T08:03:23;50.97;;;25.38;;
40164;SDS011;25882;51.120;17.248;2023-02-15T08:05:49;57.40;;;26.20;;
40164;SDS011;25882;51.120;17.248;2023-02-15T08:08:16;49.60;;;25.10;;
40164;SDS011;25882;51.120;17.248;2023-02-15T08:10:59;53.47;;;24.67;;
40164;SDS011;25882;51.120;17.248;2023-02-15T08:13:44;44.22;;;22.27;;
40164;SDS011;25882;51.120;17.248;2023-02-15T08:16:20;49.25;;;23.42;;
40164;SDS011;25882;51.120;17.248;2023-02-15T08:18:46;45.83;;;21.27;;
40164;SDS011;25882;51.120;17.248;2023-02-15T08:21:12;42.35;;;22.83;;
40164;SDS011;25882;51.120;17.248;2023-02-15T08:23:38;42.10;;;22.27;;
40164;SDS011;25882;51.120;17.248;2023-02-15T08:26:05;44.70;;;21.25;;
40164;SDS011;25882;51.120;17.248;2023-02-15T08:28:32;42.03;;;22.27;;
40164;SDS011;25882;51.120;17.248;2023-02-15T08:31:03;41.83;;;23.05;;
40164;SDS011;25882;51.120;17.248;2023-02-15T08:33:29;48.72;;;24.60;;
40164;SDS011;25882;51.120;17.248;2023-02-15T08:35:56;38.63;;;22.13;;
40164;SDS011;25882;51.120;17.248;2023-02-15T08:38:22;43.05;;;21.10;;
40164;SDS011;25882;51.120;17.248;2023-02-15T08:40:48;39.15;;;21.75;;
40164;SDS011;25882;51.120;17.248;2023-02-15T08:43:16;41.33;;;22.35;;
40164;SDS011;25882;51.120;17.248;2023-02-15T08:45:42;40.65;;;21.80;;
40164;SDS011;25882;51.120;17.248;2023-02-15T08:48:08;43.00;;;23.65;;
40164;SDS011;25882;51.120;17.248;2023-02-15T08:50:34;44.55;;;23.42;;
40164;SDS011;25882;51.120;17.248;2023-02-15T08:53:00;40.70;;;22.00;;
40164;SDS011;25882;51.120;17.248;2023-02-15T08:55:26;45.83;;;23.55;;
40164;SDS011;25882;51.120;17.248;2023-02-15T08:57:53;43.95;;;22.50;;
40164;SDS011;25882;51.120;17.248;2023-02-15T09:00:22;45.95;;;22.98;;
40164;SDS011;25882;51.120;17.248;2023-02-15T09:02:49;44.35;;;22.48;;
40164;SDS011;25882;51.120;17.248;2023-02-15T09:05:15;41.58;;;22.08;;
40164;SDS011;25882;51.120;17.248;2023-02-15T09:07:42;42.75;;;22.52;;
40164;SDS011;25882;51.120;17.248;2023-02-15T09:10:08;45.40;;;24.58;;
40164;SDS011;25882;51.120;17.248;2023-02-15T09:12:35;41.13;;;23.25;;
40164;SDS011;25882;51.120;17.248;2023-02-15T09:15:01;38.97;;;21.40;;
40164;SDS011;25882;51.120;17.248;2023-02-15T09:17:29;41.78;;;22.60;;
40164;SDS011;25882;51.120;17.248;2023-02-15T09:19:55;41.70;;;21.85;;
40164;SDS011;25882;51.120;17.248;2023-02-15T09:22:22;39.70;;;23.10;;
40164;SDS011;25882;51.120;17.248;2023-02-15T09:24:48;41.70;;;22.42;;
40164;SDS011;25882;51.120;17.248;2023-02-15T09:27:14;37.97;;;20.90;;
40164;SDS011;25882;51.120;17.248;2023-02-15T09:29:40;36.53;;;20.13;;
40164;SDS011;25882;51.120;17.248;2023-02-15T09:32:06;40.88;;;21.52;;
40164;SDS011;25882;51.120;17.248;2023-02-15T09:34:33;37.58;;;21.25;;
40164;SDS011;25882;51.120;17.248;2023-02-15T09:37:00;40.03;;;22.02;;
40164;SDS011;25882;51.120;17.248;2023-02-15T09:39:26;41.45;;;21.75;;
40164;SDS011;25882;51.120;17.248;2023-02-15T09:44:43;35.70;;;20.13;;
40164;SDS011;25882;51.120;17.248;2023-02-15T09:47:19;37.20;;;21.58;;
40164;SDS011;25882;51.120;17.248;2023-02-15T09:49:52;34.67;;;21.38;;
40164;SDS011;25882;51.120;17.248;2023-02-15T09:52:29;35.25;;;20.85;;
40164;SDS011;25882;51.120;17.248;2023-02-15T09:55:03;34.00;;;19.60;;
40164;SDS011;25882;51.120;17.248;2023-02-15T09:57:36;36.65;;;19.20;;
40164;SDS011;25882;51.120;17.248;2023-02-15T10:00:06;38.40;;;21.27;;
40164;SDS011;25882;51.120;17.248;2023-02-15T10:02:43;40.83;;;21.60;;
40164;SDS011;25882;51.120;17.248;2023-02-15T10:05:18;38.30;;;21.02;;
40164;SDS011;25882;51.120;17.248;2023-02-15T10:07:59;38.50;;;18.63;;
40164;SDS011;25882;51.120;17.248;2023-02-15T10:10:29;40.58;;;22.92;;
40164;SDS011;25882;51.120;17.248;2023-02-15T10:13:00;38.78;;;20.73;;
40164;SDS011;25882;51.120;17.248;2023-02-15T10:15:30;42.30;;;23.45;;
40164;SDS011;25882;51.120;17.248;2023-02-15T10:18:06;37.50;;;20.20;;
40164;SDS011;25882;51.120;17.248;2023-02-15T10:20:36;39.65;;;21.65;;
40164;SDS011;25882;51.120;17.248;2023-02-15T10:23:09;37.65;;;21.30;;
40164;SDS011;25882;51.120;17.248;2023-02-15T10:25:41;39.72;;;20.95;;
40164;SDS011;25882;51.120;17.248;2023-02-15T10:28:09;37.90;;;20.38;;
40164;SDS011;25882;51.120;17.248;2023-02-15T10:30:41;38.28;;;20.13;;
40164;SDS011;25882;51.120;17.248;2023-02-15T10:33:10;43.20;;;21.67;;
40164;SDS011;25882;51.120;17.248;2023-02-15T10:35:40;45.17;;;23.50;;
40164;SDS011;25882;51.120;17.248;2023-02-15T10:38:13;44.28;;;23.58;;
40164;SDS011;25882;51.120;17.248;2023-02-15T10:40:44;40.45;;;22.88;;
40164;SDS011;25882;51.120;17.248;2023-02-15T10:43:18;43.13;;;23.70;;
40164;SDS011;25882;51.120;17.248;2023-02-15T10:45:49;45.83;;;24.35;;
40164;SDS011;25882;51.120;17.248;2023-02-15T10:48:21;44.80;;;23.50;;
40164;SDS011;25882;51.120;17.248;2023-02-15T10:50:50;41.55;;;23.90;;
40164;SDS011;25882;51.120;17.248;2023-02-15T10:53:31;48.05;;;22.25;;
40164;SDS011;25882;51.120;17.248;2023-02-15T10:56:03;52.13;;;26.58;;
40164;SDS011;25882;51.120;17.248;2023-02-15T10:58:34;52.70;;;25.52;;
40164;SDS011;25882;51.120;17.248;2023-02-15T11:01:02;49.45;;;25.17;;
40164;SDS011;25882;51.120;17.248;2023-02-15T11:03:36;49.53;;;25.33;;
40164;SDS011;25882;51.120;17.248;2023-02-15T11:06:08;48.45;;;23.95;;
40164;SDS011;25882;51.120;17.248;2023-02-15T11:08:39;50.75;;;25.17;;
40164;SDS011;25882;51.120;17.248;2023-02-15T11:11:06;46.15;;;23.90;;
40164;SDS011;25882;51.120;17.248;2023-02-15T11:13:36;52.42;;;26.17;;
40164;SDS011;25882;51.120;17.248;2023-02-15T11:16:05;58.57;;;29.17;;
40164;SDS011;25882;51.120;17.248;2023-02-15T11:18:33;46.17;;;23.58;;
40164;SDS011;25882;51.120;17.248;2023-02-15T11:21:01;55.45;;;26.50;;
40164;SDS011;25882;51.120;17.248;2023-02-15T11:23:31;54.90;;;27.23;;
40164;SDS011;25882;51.120;17.248;2023-02-15T11:25:58;60.17;;;29.05;;
40164;SDS011;25882;51.120;17.248;2023-02-15T11:28:26;57.67;;;28.63;;
40164;SDS011;25882;51.120;17.248;2023-02-15T11:30:54;55.67;;;28.08;;
40164;SDS011;25882;51.120;17.248;2023-02-15T11:33:22;57.63;;;28.92;;
40164;SDS011;25882;51.120;17.248;2023-02-15T11:35:49;52.33;;;27.83;;
40164;SDS011;25882;51.120;17.248;2023-02-15T11:38:17;55.17;;;27.90;;
40164;SDS011;25882;51.120;17.248;2023-02-15T11:40:46;56.55;;;29.05;;
40164;SDS011;25882;51.120;17.248;2023-02-15T11:43:15;54.40;;;26.88;;
40164;SDS011;25882;51.120;17.248;2023-02-15T11:45:43;50.70;;;25.40;;
40164;SDS011;25882;51.120;17.248;2023-02-15T11:48:11;52.60;;;25.63;;
40164;SDS011;25882;51.120;17.248;2023-02-15T11:50:37;57.08;;;27.80;;
40164;SDS011;25882;51.120;17.248;2023-02-15T11:53:04;50.40;;;25.52;;
40164;SDS011;25882;51.120;17.248;2023-02-15T11:55:31;46.33;;;23.52;;
40164;SDS011;25882;51.120;17.248;2023-02-15T11:58:02;46.28;;;24.73;;
40164;SDS011;25882;51.120;17.248;2023-02-15T12:00:33;51.85;;;26.02;;
40164;SDS011;25882;51.120;17.248;2023-02-15T12:03:03;54.50;;;26.20;;
40164;SDS011;25882;51.120;17.248;2023-02-15T12:05:31;50.90;;;24.30;;
40164;SDS011;25882;51.120;17.248;2023-02-15T12:08:00;50.20;;;25.83;;
40164;SDS011;25882;51.120;17.248;2023-02-15T12:10:29;53.75;;;25.65;;
40164;SDS011;25882;51.120;17.248;2023-02-15T12:13:10;51.13;;;26.15;;
40164;SDS011;25882;51.120;17.248;2023-02-15T12:15:36;44.22;;;23.63;;
40164;SDS011;25882;51.120;17.248;2023-02-15T12:18:03;48.20;;;23.30;;
40164;SDS011;25882;51.120;17.248;2023-02-15T12:20:30;46.22;;;24.60;;
40164;SDS011;25882;51.120;17.248;2023-02-15T12:22:59;50.40;;;26.73;;
40164;SDS011;25882;51.120;17.248;2023-02-15T12:25:29;48.53;;;24.27;;
40164;SDS011;25882;51.120;17.248;2023-02-15T12:27:56;44.53;;;24.40;;
40164;SDS011;25882;51.120;17.248;2023-02-15T12:30:25;50.88;;;25.00;;
40164;SDS011;25882;51.120;17.248;2023-02-15T12:32:54;52.95;;;26.20;;
40164;SDS011;25882;51.120;17.248;2023-02-15T12:35:23;47.72;;;23.98;;
40164;SDS011;25882;51.120;17.248;2023-02-15T12:37:53;46.20;;;22.02;;
40164;SDS011;25882;51.120;17.248;2023-02-15T12:40:20;47.13;;;23.45;;
40164;SDS011;25882;51.120;17.248;2023-02-15T12:42:47;49.00;;;24.83;;
40164;SDS011;25882;51.120;17.248;2023-02-15T12:45:20;46.78;;;25.20;;
40164;SDS011;25882;51.120;17.248;2023-02-15T12:47:48;47.03;;;23.23;;
40164;SDS011;25882;51.120;17.248;2023-02-15T12:50:33;48.72;;;23.85;;
40164;SDS011;25882;51.120;17.248;2023-02-15T12:53:05;47.65;;;24.83;;
40164;SDS011;25882;51.120;17.248;2023-02-15T12:55:31;47.85;;;24.67;;
40164;SDS011;25882;51.120;17.248;2023-02-15T12:58:08;47.60;;;24.10;;
40164;SDS011;25882;51.120;17.248;2023-02-15T13:00:34;47.38;;;25.02;;
40164;SDS011;25882;51.120;17.248;2023-02-15T13:03:03;53.53;;;25.95;;
40164;SDS011;25882;51.120;17.248;2023-02-15T13:05:31;51.35;;;25.83;;
40164;SDS011;25882;51.120;17.248;2023-02-15T13:07:58;48.10;;;24.35;;
40164;SDS011;25882;51.120;17.248;2023-02-15T13:10:26;48.42;;;23.92;;
40164;SDS011;25882;51.120;17.248;2023-02-15T13:12:54;48.10;;;23.92;;
40164;SDS011;25882;51.120;17.248;2023-02-15T13:15:23;46.10;;;23.38;;
40164;SDS011;25882;51.120;17.248;2023-02-15T13:17:51;45.47;;;22.00;;
40164;SDS011;25882;51.120;17.248;2023-02-15T13:20:19;52.10;;;23.67;;
40164;SDS011;25882;51.120;17.248;2023-02-15T13:22:48;43.78;;;24.33;;
40164;SDS011;25882;51.120;17.248;2023-02-15T13:25:17;51.15;;;23.92;;
40164;SDS011;25882;51.120;17.248;2023-02-15T13:27:45;46.20;;;21.95;;
40164;SDS011;25882;51.120;17.248;2023-02-15T13:30:22;47.17;;;23.50;;
40164;SDS011;25882;51.120;17.248;2023-02-15T13:32:49;44.50;;;24.85;;
40164;SDS011;25882;51.120;17.248;2023-02-15T13:35:17;46.13;;;22.63;;
40164;SDS011;25882;51.120;17.248;2023-02-15T13:40:27;43.90;;;22.65;;
40164;SDS011;25882;51.120;17.248;2023-02-15T13:42:59;45.53;;;23.15;;
40164;SDS011;25882;51.120;17.248;2023-02-15T13:45:30;50.35;;;23.45;;
40164;SDS011;25882;51.120;17.248;2023-02-15T13:48:00;48.13;;;22.63;;
40164;SDS011;25882;51.120;17.248;2023-02-15T13:50:44;42.88;;;21.80;;
40164;SDS011;25882;51.120;17.248;2023-02-15T13:53:17;48.65;;;24.30;;
40164;SDS011;25882;51.120;17.248;2023-02-15T13:55:49;49.85;;;26.40;;
40164;SDS011;25882;51.120;17.248;2023-02-15T13:58:24;44.92;;;22.08;;
40164;SDS011;25882;51.120;17.248;2023-02-15T14:00:55;44.97;;;21.25;;
40164;SDS011;25882;51.120;17.248;2023-02-15T14:06:13;44.65;;;21.67;;
40164;SDS011;25882;51.120;17.248;2023-02-15T14:08:43;42.63;;;21.88;;
40164;SDS011;25882;51.120;17.248;2023-02-15T14:11:15;44.75;;;21.50;;
40164;SDS011;25882;51.120;17.248;2023-02-15T14:13:56;42.67;;;21.80;;
40164;SDS011;25882;51.120;17.248;2023-02-15T14:16:28;43.80;;;21.48;;
40164;SDS011;25882;51.120;17.248;2023-02-15T14:19:01;40.05;;;21.42;;
40164;SDS011;25882;51.120;17.248;2023-02-15T14:21:30;41.55;;;21.15;;
40164;SDS011;25882;51.120;17.248;2023-02-15T14:24:01;40.10;;;20.17;;
40164;SDS011;25882;51.120;17.248;2023-02-15T14:26:33;42.40;;;21.08;;
40164;SDS011;25882;51.120;17.248;2023-02-15T14:29:05;43.75;;;20.85;;
40164;SDS011;25882;51.120;17.248;2023-02-15T14:31:34;37.85;;;19.70;;
40164;SDS011;25882;51.120;17.248;2023-02-15T14:34:03;45.85;;;22.65;;
40164;SDS011;25882;51.120;17.248;2023-02-15T14:36:29;38.53;;;18.52;;